Gladstone Airport
YGLA : now visible

Airfield :











YOU CAN JOIN US ON...

 
LOGIN :

Register | Disclaimer

   EN    FR    IT 

 









Legend :    VFR   Marginal VFR   IFR   Intensive IFR   Very Intensive IFR
Visi :
Ceiling :
>= 8 km
>= 3000ft
5 to 8 km
1000 to 3000 ft
1500m to 5 km
500 to 1000 ft
800 to 1500m
200 to 500 ft
< 800m
< 200 ft
Symbols :   Thunderstorms  Fog  Heavy snow  Heavy precipitations  Wind > 20 kt






- Airport Elevation : 64 ft
- IATA code : GLT


YGLA - Gladstone

CURRENT METAR :
  • 101300Z AUTO 21003KT 9999 // NCD 23/20 Q1016

EXPIRED METARs :
  • 101230Z AUTO 21004KT 9999 // SCT024 23/20 Q1016 RF00.0/000.0
  • 101200Z AUTO 21004KT 9999 // BKN022 23/20 Q1017
  • 101130Z AUTO 00000KT 9999 // SCT020 SCT079 24/19 Q1017
  • 101100Z AUTO 08003KT 9999 // SCT020 25/20 Q1017
  • 101030Z AUTO 08004KT 9999 // BKN020 25/20 Q1017 RF00.0/000.0

TAF TAF YGLA
Valid from the 10 at 12:00 until the 11 at 00:00 UTC


101118Z 1012/1100 30006KT 9999 SCT020
FM101500 22006KT 9999 SCT015 BKN020
FM102300 35008KT 9999 SCT025



MET'MAP, your aeronautical weather chart ! - Copyright ORBIFLY December 2007 - Disclaimer

ORBIFLY MET'MAP TEAM :

Programming & Development : Alexandra Zaïnal
Concept & original design : Baudouin d'Aumeries
Assistance for programming : Marc-Olivier Méhu
Technical & hardware support : Manuel Goepfert

Contact : metmap@orbifly.com




SOURCES & CREDITS :

   NOAA       Earth
Advisory